sensor_id;sensor_type;location;lat;lon;timestamp;P1;durP1;ratioP1;P2;durP2;ratioP2
50056;SDS011;36875;49.468;11.200;2022-08-23T00:00:47;2.85;;;1.95;;
50056;SDS011;36875;49.468;11.200;2022-08-23T00:03:13;2.65;;;1.88;;
50056;SDS011;36875;49.468;11.200;2022-08-23T00:05:39;2.33;;;1.73;;
50056;SDS011;36875;49.468;11.200;2022-08-23T00:08:06;2.58;;;1.70;;
50056;SDS011;36875;49.468;11.200;2022-08-23T00:10:32;3.63;;;1.70;;
50056;SDS011;36875;49.468;11.200;2022-08-23T00:12:57;1.90;;;1.70;;
50056;SDS011;36875;49.468;11.200;2022-08-23T00:15:23;2.28;;;1.55;;
50056;SDS011;36875;49.468;11.200;2022-08-23T00:17:49;3.28;;;1.90;;
50056;SDS011;36875;49.468;11.200;2022-08-23T00:20:16;3.03;;;1.83;;
50056;SDS011;36875;49.468;11.200;2022-08-23T00:22:42;2.33;;;1.70;;
50056;SDS011;36875;49.468;11.200;2022-08-23T00:25:10;3.70;;;2.05;;
50056;SDS011;36875;49.468;11.200;2022-08-23T00:27:37;2.08;;;1.60;;
50056;SDS011;36875;49.468;11.200;2022-08-23T00:30:05;2.30;;;1.60;;
50056;SDS011;36875;49.468;11.200;2022-08-23T00:32:34;2.47;;;1.60;;
50056;SDS011;36875;49.468;11.200;2022-08-23T00:35:01;2.38;;;1.70;;
50056;SDS011;36875;49.468;11.200;2022-08-23T00:37:27;2.92;;;1.77;;
50056;SDS011;36875;49.468;11.200;2022-08-23T00:39:56;2.08;;;1.70;;
50056;SDS011;36875;49.468;11.200;2022-08-23T00:42:28;2.47;;;1.63;;
50056;SDS011;36875;49.468;11.200;2022-08-23T00:45:16;2.80;;;1.65;;
50056;SDS011;36875;49.468;11.200;2022-08-23T00:48:03;4.05;;;1.70;;
50056;SDS011;36875;49.468;11.200;2022-08-23T00:50:33;2.85;;;1.70;;
50056;SDS011;36875;49.468;11.200;2022-08-23T00:53:05;4.07;;;1.90;;
50056;SDS011;36875;49.468;11.200;2022-08-23T00:55:37;1.95;;;1.60;;
50056;SDS011;36875;49.468;11.200;2022-08-23T00:58:05;2.30;;;1.67;;
50056;SDS011;36875;49.468;11.200;2022-08-23T01:00:32;2.15;;;1.77;;
50056;SDS011;36875;49.468;11.200;2022-08-23T01:02:58;2.58;;;1.80;;
50056;SDS011;36875;49.468;11.200;2022-08-23T01:05:24;2.17;;;1.73;;
50056;SDS011;36875;49.468;11.200;2022-08-23T01:07:55;2.20;;;1.67;;
50056;SDS011;36875;49.468;11.200;2022-08-23T01:10:25;3.17;;;2.00;;
50056;SDS011;36875;49.468;11.200;2022-08-23T01:12:55;3.22;;;1.73;;
50056;SDS011;36875;49.468;11.200;2022-08-23T01:15:28;2.17;;;1.48;;
50056;SDS011;36875;49.468;11.200;2022-08-23T01:17:57;2.72;;;1.70;;
50056;SDS011;36875;49.468;11.200;2022-08-23T01:20:27;1.93;;;1.37;;
50056;SDS011;36875;49.468;11.200;2022-08-23T01:23:01;1.92;;;1.55;;
50056;SDS011;36875;49.468;11.200;2022-08-23T01:25:31;3.03;;;1.80;;
50056;SDS011;36875;49.468;11.200;2022-08-23T01:27:58;1.85;;;1.50;;
50056;SDS011;36875;49.468;11.200;2022-08-23T01:30:25;2.15;;;1.65;;
50056;SDS011;36875;49.468;11.200;2022-08-23T01:32:54;2.10;;;1.60;;
50056;SDS011;36875;49.468;11.200;2022-08-23T01:35:23;2.03;;;1.52;;
50056;SDS011;36875;49.468;11.200;2022-08-23T01:37:59;2.53;;;1.63;;
50056;SDS011;36875;49.468;11.200;2022-08-23T01:40:25;2.20;;;1.80;;
50056;SDS011;36875;49.468;11.200;2022-08-23T01:42:52;2.15;;;1.55;;
50056;SDS011;36875;49.468;11.200;2022-08-23T01:45:19;3.95;;;1.75;;
50056;SDS011;36875;49.468;11.200;2022-08-23T01:47:44;2.65;;;1.80;;
50056;SDS011;36875;49.468;11.200;2022-08-23T01:50:10;2.17;;;1.80;;
50056;SDS011;36875;49.468;11.200;2022-08-23T01:52:37;3.05;;;1.65;;
50056;SDS011;36875;49.468;11.200;2022-08-23T01:55:04;2.60;;;1.70;;
50056;SDS011;36875;49.468;11.200;2022-08-23T01:57:31;3.17;;;1.90;;
50056;SDS011;36875;49.468;11.200;2022-08-23T01:59:59;2.70;;;1.52;;
50056;SDS011;36875;49.468;11.200;2022-08-23T02:02:25;1.80;;;1.60;;
50056;SDS011;36875;49.468;11.200;2022-08-23T02:04:52;2.78;;;1.90;;
50056;SDS011;36875;49.468;11.200;2022-08-23T02:07:18;2.50;;;1.60;;
50056;SDS011;36875;49.468;11.200;2022-08-23T02:09:44;2.28;;;1.55;;
50056;SDS011;36875;49.468;11.200;2022-08-23T02:12:10;2.55;;;1.65;;
50056;SDS011;36875;49.468;11.200;2022-08-23T02:14:36;1.80;;;1.60;;
50056;SDS011;36875;49.468;11.200;2022-08-23T02:17:07;2.28;;;1.48;;
50056;SDS011;36875;49.468;11.200;2022-08-23T02:19:34;1.88;;;1.50;;
50056;SDS011;36875;49.468;11.200;2022-08-23T02:22:00;2.08;;;1.50;;
50056;SDS011;36875;49.468;11.200;2022-08-23T02:24:26;2.28;;;1.60;;
50056;SDS011;36875;49.468;11.200;2022-08-23T02:26:52;3.03;;;1.60;;
50056;SDS011;36875;49.468;11.200;2022-08-23T02:29:21;2.17;;;1.55;;
50056;SDS011;36875;49.468;11.200;2022-08-23T02:31:48;2.65;;;1.70;;
50056;SDS011;36875;49.468;11.200;2022-08-23T02:34:16;2.70;;;1.52;;
50056;SDS011;36875;49.468;11.200;2022-08-23T02:36:43;2.72;;;1.70;;
50056;SDS011;36875;49.468;11.200;2022-08-23T02:39:09;2.47;;;1.80;;
50056;SDS011;36875;49.468;11.200;2022-08-23T02:41:36;2.10;;;1.70;;
50056;SDS011;36875;49.468;11.200;2022-08-23T02:44:02;3.35;;;1.80;;
50056;SDS011;36875;49.468;11.200;2022-08-23T02:46:28;2.40;;;1.50;;
50056;SDS011;36875;49.468;11.200;2022-08-23T02:48:54;2.25;;;1.75;;
50056;SDS011;36875;49.468;11.200;2022-08-23T02:51:22;3.00;;;1.90;;
50056;SDS011;36875;49.468;11.200;2022-08-23T02:53:48;1.95;;;1.60;;
50056;SDS011;36875;49.468;11.200;2022-08-23T02:56:14;1.88;;;1.50;;
50056;SDS011;36875;49.468;11.200;2022-08-23T02:58:40;2.97;;;2.05;;
50056;SDS011;36875;49.468;11.200;2022-08-23T03:01:05;2.33;;;1.83;;
50056;SDS011;36875;49.468;11.200;2022-08-23T03:03:39;2.42;;;1.70;;
50056;SDS011;36875;49.468;11.200;2022-08-23T03:06:04;1.98;;;1.67;;
50056;SDS011;36875;49.468;11.200;2022-08-23T03:08:32;3.05;;;1.98;;
50056;SDS011;36875;49.468;11.200;2022-08-23T03:10:57;2.10;;;1.60;;
50056;SDS011;36875;49.468;11.200;2022-08-23T03:13:23;1.85;;;1.60;;
50056;SDS011;36875;49.468;11.200;2022-08-23T03:15:48;1.67;;;1.50;;
50056;SDS011;36875;49.468;11.200;2022-08-23T03:18:14;2.10;;;1.80;;
50056;SDS011;36875;49.468;11.200;2022-08-23T03:20:40;1.83;;;1.45;;
50056;SDS011;36875;49.468;11.200;2022-08-23T03:23:06;2.42;;;1.80;;
50056;SDS011;36875;49.468;11.200;2022-08-23T03:25:33;1.67;;;1.55;;
50056;SDS011;36875;49.468;11.200;2022-08-23T03:28:00;1.85;;;1.70;;
50056;SDS011;36875;49.468;11.200;2022-08-23T03:30:28;2.28;;;1.80;;
50056;SDS011;36875;49.468;11.200;2022-08-23T03:32:54;2.00;;;1.63;;
50056;SDS011;36875;49.468;11.200;2022-08-23T03:35:20;4.13;;;1.88;;
50056;SDS011;36875;49.468;11.200;2022-08-23T03:37:45;2.92;;;1.60;;
50056;SDS011;36875;49.468;11.200;2022-08-23T03:40:11;2.95;;;1.70;;
50056;SDS011;36875;49.468;11.200;2022-08-23T03:42:38;2.58;;;1.73;;
50056;SDS011;36875;49.468;11.200;2022-08-23T03:45:04;2.05;;;1.60;;
50056;SDS011;36875;49.468;11.200;2022-08-23T03:47:30;2.03;;;1.73;;
50056;SDS011;36875;49.468;11.200;2022-08-23T03:49:55;2.70;;;1.58;;
50056;SDS011;36875;49.468;11.200;2022-08-23T03:52:22;1.67;;;1.42;;
50056;SDS011;36875;49.468;11.200;2022-08-23T03:54:48;2.65;;;1.80;;
50056;SDS011;36875;49.468;11.200;2022-08-23T03:57:14;2.08;;;1.70;;
50056;SDS011;36875;49.468;11.200;2022-08-23T03:59:41;2.58;;;1.75;;
50056;SDS011;36875;49.468;11.200;2022-08-23T04:02:07;2.08;;;1.70;;
50056;SDS011;36875;49.468;11.200;2022-08-23T04:04:33;3.22;;;1.80;;
50056;SDS011;36875;49.468;11.200;2022-08-23T04:06:59;2.53;;;1.77;;
50056;SDS011;36875;49.468;11.200;2022-08-23T04:09:25;2.92;;;1.77;;
50056;SDS011;36875;49.468;11.200;2022-08-23T04:11:50;2.22;;;1.60;;
50056;SDS011;36875;49.468;11.200;2022-08-23T04:14:17;2.58;;;1.73;;
50056;SDS011;36875;49.468;11.200;2022-08-23T04:16:44;2.33;;;1.80;;
50056;SDS011;36875;49.468;11.200;2022-08-23T04:19:11;3.05;;;1.77;;
50056;SDS011;36875;49.468;11.200;2022-08-23T04:21:38;1.60;;;1.50;;
50056;SDS011;36875;49.468;11.200;2022-08-23T04:24:07;2.63;;;1.73;;
50056;SDS011;36875;49.468;11.200;2022-08-23T04:26:32;3.50;;;1.73;;
50056;SDS011;36875;49.468;11.200;2022-08-23T04:28:58;3.13;;;1.73;;
50056;SDS011;36875;49.468;11.200;2022-08-23T04:31:24;2.50;;;1.80;;
50056;SDS011;36875;49.468;11.200;2022-08-23T04:33:54;2.03;;;1.70;;
50056;SDS011;36875;49.468;11.200;2022-08-23T04:36:23;2.10;;;1.70;;
50056;SDS011;36875;49.468;11.200;2022-08-23T04:38:49;1.83;;;1.50;;
50056;SDS011;36875;49.468;11.200;2022-08-23T04:41:14;2.78;;;1.60;;
50056;SDS011;36875;49.468;11.200;2022-08-23T04:43:59;2.20;;;1.85;;
50056;SDS011;36875;49.468;11.200;2022-08-23T04:46:25;1.88;;;1.70;;
50056;SDS011;36875;49.468;11.200;2022-08-23T04:48:50;2.65;;;1.95;;
50056;SDS011;36875;49.468;11.200;2022-08-23T04:51:19;1.83;;;1.55;;
50056;SDS011;36875;49.468;11.200;2022-08-23T04:53:46;2.47;;;1.70;;
50056;SDS011;36875;49.468;11.200;2022-08-23T04:56:12;2.20;;;1.88;;
50056;SDS011;36875;49.468;11.200;2022-08-23T04:58:37;2.28;;;1.60;;
50056;SDS011;36875;49.468;11.200;2022-08-23T05:01:04;4.38;;;2.42;;
50056;SDS011;36875;49.468;11.200;2022-08-23T05:03:34;1.90;;;1.70;;
50056;SDS011;36875;49.468;11.200;2022-08-23T05:06:00;3.50;;;1.90;;
50056;SDS011;36875;49.468;11.200;2022-08-23T05:08:30;1.77;;;1.60;;
50056;SDS011;36875;49.468;11.200;2022-08-23T05:10:58;1.90;;;1.70;;
50056;SDS011;36875;49.468;11.200;2022-08-23T05:13:24;2.28;;;1.75;;
50056;SDS011;36875;49.468;11.200;2022-08-23T05:15:50;1.70;;;1.55;;
50056;SDS011;36875;49.468;11.200;2022-08-23T05:18:16;2.03;;;1.70;;
50056;SDS011;36875;49.468;11.200;2022-08-23T05:20:42;2.33;;;1.60;;
50056;SDS011;36875;49.468;11.200;2022-08-23T05:23:08;1.73;;;1.58;;
50056;SDS011;36875;49.468;11.200;2022-08-23T05:25:35;2.58;;;1.55;;
50056;SDS011;36875;49.468;11.200;2022-08-23T05:28:30;2.65;;;1.80;;
50056;SDS011;36875;49.468;11.200;2022-08-23T05:30:59;2.35;;;1.70;;
50056;SDS011;36875;49.468;11.200;2022-08-23T05:33:27;2.05;;;1.60;;
50056;SDS011;36875;49.468;11.200;2022-08-23T05:35:54;1.92;;;1.73;;
50056;SDS011;36875;49.468;11.200;2022-08-23T05:38:20;2.25;;;1.60;;
50056;SDS011;36875;49.468;11.200;2022-08-23T05:40:48;2.03;;;1.67;;
50056;SDS011;36875;49.468;11.200;2022-08-23T05:43:14;2.17;;;1.70;;
50056;SDS011;36875;49.468;11.200;2022-08-23T05:45:40;2.15;;;1.73;;
50056;SDS011;36875;49.468;11.200;2022-08-23T05:48:06;2.08;;;1.77;;
50056;SDS011;36875;49.468;11.200;2022-08-23T05:50:32;2.28;;;1.50;;
50056;SDS011;36875;49.468;11.200;2022-08-23T05:53:00;3.28;;;1.70;;
50056;SDS011;36875;49.468;11.200;2022-08-23T05:55:25;2.53;;;1.90;;
50056;SDS011;36875;49.468;11.200;2022-08-23T05:57:52;3.58;;;1.60;;
50056;SDS011;36875;49.468;11.200;2022-08-23T06:00:18;2.20;;;1.70;;
50056;SDS011;36875;49.468;11.200;2022-08-23T06:02:44;2.40;;;1.70;;
50056;SDS011;36875;49.468;11.200;2022-08-23T06:05:09;2.17;;;1.80;;
50056;SDS011;36875;49.468;11.200;2022-08-23T06:07:35;2.13;;;1.70;;
50056;SDS011;36875;49.468;11.200;2022-08-23T06:10:01;3.30;;;1.63;;
50056;SDS011;36875;49.468;11.200;2022-08-23T06:12:27;3.15;;;2.17;;
50056;SDS011;36875;49.468;11.200;2022-08-23T06:14:54;2.15;;;1.77;;
50056;SDS011;36875;49.468;11.200;2022-08-23T06:17:19;3.30;;;1.80;;
50056;SDS011;36875;49.468;11.200;2022-08-23T06:19:45;3.75;;;1.63;;
50056;SDS011;36875;49.468;11.200;2022-08-23T06:22:10;3.20;;;1.80;;
50056;SDS011;36875;49.468;11.200;2022-08-23T06:24:36;4.45;;;1.90;;
50056;SDS011;36875;49.468;11.200;2022-08-23T06:27:02;2.72;;;1.70;;
50056;SDS011;36875;49.468;11.200;2022-08-23T06:29:27;3.50;;;1.85;;
50056;SDS011;36875;49.468;11.200;2022-08-23T06:31:54;2.55;;;1.75;;
50056;SDS011;36875;49.468;11.200;2022-08-23T06:34:21;3.78;;;1.95;;
50056;SDS011;36875;49.468;11.200;2022-08-23T06:36:50;3.90;;;2.00;;
50056;SDS011;36875;49.468;11.200;2022-08-23T06:39:18;3.10;;;2.00;;
50056;SDS011;36875;49.468;11.200;2022-08-23T06:41:44;4.63;;;1.95;;
50056;SDS011;36875;49.468;11.200;2022-08-23T06:44:12;4.22;;;1.98;;
50056;SDS011;36875;49.468;11.200;2022-08-23T06:46:38;7.30;;;2.50;;
50056;SDS011;36875;49.468;11.200;2022-08-23T06:49:06;6.35;;;2.83;;
50056;SDS011;36875;49.468;11.200;2022-08-23T06:51:32;5.18;;;2.75;;
50056;SDS011;36875;49.468;11.200;2022-08-23T06:54:00;4.80;;;2.72;;
50056;SDS011;36875;49.468;11.200;2022-08-23T06:56:29;9.13;;;2.72;;
50056;SDS011;36875;49.468;11.200;2022-08-23T06:58:54;6.20;;;3.40;;
50056;SDS011;36875;49.468;11.200;2022-08-23T07:01:22;6.65;;;2.92;;
50056;SDS011;36875;49.468;11.200;2022-08-23T07:03:54;9.60;;;3.53;;
50056;SDS011;36875;49.468;11.200;2022-08-23T07:06:22;8.20;;;3.58;;
50056;SDS011;36875;49.468;11.200;2022-08-23T07:08:48;8.93;;;3.60;;
50056;SDS011;36875;49.468;11.200;2022-08-23T07:11:14;5.13;;;3.42;;
50056;SDS011;36875;49.468;11.200;2022-08-23T07:13:40;6.18;;;3.20;;
50056;SDS011;36875;49.468;11.200;2022-08-23T07:16:06;7.28;;;3.55;;
50056;SDS011;36875;49.468;11.200;2022-08-23T07:18:32;6.15;;;3.25;;
50056;SDS011;36875;49.468;11.200;2022-08-23T07:20:58;5.60;;;2.78;;
50056;SDS011;36875;49.468;11.200;2022-08-23T07:23:27;8.02;;;3.00;;
50056;SDS011;36875;49.468;11.200;2022-08-23T07:25:57;5.63;;;3.15;;
50056;SDS011;36875;49.468;11.200;2022-08-23T07:28:23;4.95;;;3.47;;
50056;SDS011;36875;49.468;11.200;2022-08-23T07:30:49;6.15;;;2.70;;
50056;SDS011;36875;49.468;11.200;2022-08-23T07:33:14;5.63;;;2.97;;
50056;SDS011;36875;49.468;11.200;2022-08-23T07:35:45;4.63;;;3.05;;
50056;SDS011;36875;49.468;11.200;2022-08-23T07:38:12;5.38;;;2.80;;
50056;SDS011;36875;49.468;11.200;2022-08-23T07:40:39;4.45;;;3.28;;
50056;SDS011;36875;49.468;11.200;2022-08-23T07:43:04;6.32;;;2.88;;
50056;SDS011;36875;49.468;11.200;2022-08-23T07:45:30;3.97;;;2.58;;
50056;SDS011;36875;49.468;11.200;2022-08-23T07:47:55;6.28;;;2.75;;
50056;SDS011;36875;49.468;11.200;2022-08-23T07:50:21;5.78;;;2.92;;
50056;SDS011;36875;49.468;11.200;2022-08-23T07:52:46;4.30;;;2.72;;
50056;SDS011;36875;49.468;11.200;2022-08-23T07:55:13;6.43;;;2.60;;
50056;SDS011;36875;49.468;11.200;2022-08-23T07:57:40;5.13;;;2.83;;
50056;SDS011;36875;49.468;11.200;2022-08-23T08:00:07;6.00;;;3.00;;
50056;SDS011;36875;49.468;11.200;2022-08-23T08:02:33;5.22;;;2.80;;
50056;SDS011;36875;49.468;11.200;2022-08-23T08:04:58;4.30;;;2.70;;
50056;SDS011;36875;49.468;11.200;2022-08-23T08:07:24;6.18;;;2.70;;
50056;SDS011;36875;49.468;11.200;2022-08-23T08:09:51;7.47;;;3.00;;
50056;SDS011;36875;49.468;11.200;2022-08-23T08:12:17;4.40;;;2.58;;
50056;SDS011;36875;49.468;11.200;2022-08-23T08:14:44;4.57;;;2.58;;
50056;SDS011;36875;49.468;11.200;2022-08-23T08:17:12;8.40;;;2.90;;
50056;SDS011;36875;49.468;11.200;2022-08-23T08:19:38;4.28;;;2.30;;
50056;SDS011;36875;49.468;11.200;2022-08-23T08:22:05;5.45;;;2.33;;
50056;SDS011;36875;49.468;11.200;2022-08-23T08:24:31;5.45;;;2.60;;
50056;SDS011;36875;49.468;11.200;2022-08-23T08:26:57;4.30;;;2.60;;
50056;SDS011;36875;49.468;11.200;2022-08-23T08:29:23;4.85;;;2.50;;
50056;SDS011;36875;49.468;11.200;2022-08-23T08:31:50;5.90;;;2.45;;
50056;SDS011;36875;49.468;11.200;2022-08-23T08:34:16;5.85;;;2.72;;
50056;SDS011;36875;49.468;11.200;2022-08-23T08:36:45;3.53;;;2.50;;
50056;SDS011;36875;49.468;11.200;2022-08-23T08:39:14;4.30;;;2.50;;
50056;SDS011;36875;49.468;11.200;2022-08-23T08:41:45;3.67;;;2.47;;
50056;SDS011;36875;49.468;11.200;2022-08-23T08:44:19;4.25;;;2.63;;
50056;SDS011;36875;49.468;11.200;2022-08-23T08:46:53;4.20;;;2.55;;
50056;SDS011;36875;49.468;11.200;2022-08-23T08:49:28;2.50;;;2.08;;
50056;SDS011;36875;49.468;11.200;2022-08-23T08:52:00;4.65;;;2.50;;
50056;SDS011;36875;49.468;11.200;2022-08-23T08:54:33;3.42;;;2.05;;
50056;SDS011;36875;49.468;11.200;2022-08-23T08:57:00;4.22;;;2.40;;
50056;SDS011;36875;49.468;11.200;2022-08-23T08:59:28;4.60;;;2.30;;
50056;SDS011;36875;49.468;11.200;2022-08-23T09:02:10;3.80;;;2.33;;
50056;SDS011;36875;49.468;11.200;2022-08-23T09:04:41;4.03;;;2.58;;
50056;SDS011;36875;49.468;11.200;2022-08-23T09:07:09;5.78;;;2.05;;
50056;SDS011;36875;49.468;11.200;2022-08-23T09:09:52;4.43;;;2.17;;
50056;SDS011;36875;49.468;11.200;2022-08-23T09:15:14;3.10;;;2.10;;
50056;SDS011;36875;49.468;11.200;2022-08-23T09:17:50;7.55;;;2.03;;
50056;SDS011;36875;49.468;11.200;2022-08-23T09:22:46;2.60;;;1.70;;
50056;SDS011;36875;49.468;11.200;2022-08-23T09:25:15;4.30;;;2.17;;
50056;SDS011;36875;49.468;11.200;2022-08-23T09:27:41;2.58;;;2.00;;
50056;SDS011;36875;49.468;11.200;2022-08-23T09:30:08;5.60;;;2.08;;
50056;SDS011;36875;49.468;11.200;2022-08-23T09:32:36;3.45;;;2.03;;
50056;SDS011;36875;49.468;11.200;2022-08-23T09:35:06;3.92;;;1.85;;
50056;SDS011;36875;49.468;11.200;2022-08-23T09:37:46;4.68;;;2.30;;
50056;SDS011;36875;49.468;11.200;2022-08-23T09:40:16;3.65;;;2.00;;
50056;SDS011;36875;49.468;11.200;2022-08-23T09:42:43;2.80;;;1.90;;
50056;SDS011;36875;49.468;11.200;2022-08-23T09:45:23;3.35;;;1.85;;
50056;SDS011;36875;49.468;11.200;2022-08-23T09:47:50;3.40;;;1.80;;
50056;SDS011;36875;49.468;11.200;2022-08-23T09:50:22;2.53;;;1.88;;
50056;SDS011;36875;49.468;11.200;2022-08-23T09:52:53;2.60;;;1.67;;
50056;SDS011;36875;49.468;11.200;2022-08-23T09:55:27;2.00;;;1.80;;
50056;SDS011;36875;49.468;11.200;2022-08-23T09:57:56;2.83;;;1.90;;
50056;SDS011;36875;49.468;11.200;2022-08-23T10:00:25;2.78;;;1.75;;
50056;SDS011;36875;49.468;11.200;2022-08-23T10:02:52;3.20;;;2.00;;
50056;SDS011;36875;49.468;11.200;2022-08-23T10:05:29;6.40;;;1.88;;
50056;SDS011;36875;49.468;11.200;2022-08-23T10:08:00;3.60;;;1.95;;
50056;SDS011;36875;49.468;11.200;2022-08-23T10:10:28;3.70;;;2.10;;
50056;SDS011;36875;49.468;11.200;2022-08-23T10:12:58;2.53;;;1.60;;
50056;SDS011;36875;49.468;11.200;2022-08-23T10:15:28;3.47;;;1.70;;
50056;SDS011;36875;49.468;11.200;2022-08-23T10:18:06;5.55;;;2.03;;
50056;SDS011;36875;49.468;11.200;2022-08-23T10:20:47;4.57;;;1.80;;
50056;SDS011;36875;49.468;11.200;2022-08-23T10:23:23;3.80;;;1.52;;
50056;SDS011;36875;49.468;11.200;2022-08-23T10:26:00;4.90;;;1.60;;
50056;SDS011;36875;49.468;11.200;2022-08-23T10:28:29;3.25;;;1.40;;
50056;SDS011;36875;49.468;11.200;2022-08-23T10:31:23;2.53;;;1.40;;
50056;SDS011;36875;49.468;11.200;2022-08-23T10:34:02;2.45;;;1.48;;
50056;SDS011;36875;49.468;11.200;2022-08-23T10:36:44;2.15;;;1.27;;
50056;SDS011;36875;49.468;11.200;2022-08-23T10:39:17;1.88;;;1.33;;
50056;SDS011;36875;49.468;11.200;2022-08-23T10:41:51;3.08;;;1.40;;
50056;SDS011;36875;49.468;11.200;2022-08-23T10:44:26;4.13;;;1.48;;
50056;SDS011;36875;49.468;11.200;2022-08-23T10:49:42;2.05;;;1.25;;
50056;SDS011;36875;49.468;11.200;2022-08-23T10:52:16;2.42;;;1.23;;
50056;SDS011;36875;49.468;11.200;2022-08-23T10:54:47;2.00;;;1.02;;
50056;SDS011;36875;49.468;11.200;2022-08-23T10:57:40;1.60;;;1.10;;
50056;SDS011;36875;49.468;11.200;2022-08-23T11:00:09;1.33;;;1.10;;
50056;SDS011;36875;49.468;11.200;2022-08-23T11:02:40;3.42;;;1.10;;
50056;SDS011;36875;49.468;11.200;2022-08-23T11:05:17;1.98;;;1.10;;
50056;SDS011;36875;49.468;11.200;2022-08-23T11:07:56;1.88;;;1.10;;
50056;SDS011;36875;49.468;11.200;2022-08-23T11:10:25;2.05;;;1.10;;
50056;SDS011;36875;49.468;11.200;2022-08-23T11:12:57;2.45;;;1.30;;
50056;SDS011;36875;49.468;11.200;2022-08-23T11:15:26;1.15;;;1.00;;
50056;SDS011;36875;49.468;11.200;2022-08-23T11:18:04;1.58;;;1.00;;
50056;SDS011;36875;49.468;11.200;2022-08-23T11:23:40;1.67;;;1.02;;
50056;SDS011;36875;49.468;11.200;2022-08-23T11:26:09;1.53;;;0.93;;
50056;SDS011;36875;49.468;11.200;2022-08-23T11:31:56;2.03;;;1.00;;
50056;SDS011;36875;49.468;11.200;2022-08-23T11:34:27;1.15;;;1.00;;
50056;SDS011;36875;49.468;11.200;2022-08-23T11:42:45;1.17;;;1.00;;
50056;SDS011;36875;49.468;11.200;2022-08-23T11:45:21;1.20;;;0.90;;
50056;SDS011;36875;49.468;11.200;2022-08-23T11:48:03;1.88;;;1.05;;
50056;SDS011;36875;49.468;11.200;2022-08-23T11:50:38;1.80;;;0.98;;
50056;SDS011;36875;49.468;11.200;2022-08-23T11:53:17;0.82;;;0.82;;
50056;SDS011;36875;49.468;11.200;2022-08-23T11:56:04;1.60;;;0.95;;
50056;SDS011;36875;49.468;11.200;2022-08-23T11:58:56;2.15;;;1.30;;
50056;SDS011;36875;49.468;11.200;2022-08-23T12:01:34;3.03;;;1.00;;
50056;SDS011;36875;49.468;11.200;2022-08-23T12:04:03;1.67;;;0.90;;
50056;SDS011;36875;49.468;11.200;2022-08-23T12:12:31;1.42;;;0.80;;
50056;SDS011;36875;49.468;11.200;2022-08-23T12:14:59;2.63;;;0.95;;
50056;SDS011;36875;49.468;11.200;2022-08-23T12:20:35;1.83;;;1.00;;
50056;SDS011;36875;49.468;11.200;2022-08-23T12:23:06;3.65;;;1.00;;
50056;SDS011;36875;49.468;11.200;2022-08-23T12:25:38;2.42;;;1.02;;
50056;SDS011;36875;49.468;11.200;2022-08-23T12:28:09;0.80;;;0.80;;
50056;SDS011;36875;49.468;11.200;2022-08-23T12:30:55;0.77;;;0.77;;
50056;SDS011;36875;49.468;11.200;2022-08-23T12:33:25;1.55;;;1.00;;
50056;SDS011;36875;49.468;11.200;2022-08-23T12:35:59;1.13;;;0.90;;
50056;SDS011;36875;49.468;11.200;2022-08-23T12:38:34;1.17;;;0.80;;
50056;SDS011;36875;49.468;11.200;2022-08-23T12:41:16;1.15;;;0.70;;
50056;SDS011;36875;49.468;11.200;2022-08-23T12:43:57;1.98;;;1.10;;
50056;SDS011;36875;49.468;11.200;2022-08-23T12:46:30;2.75;;;1.02;;
50056;SDS011;36875;49.468;11.200;2022-08-23T12:48:57;1.05;;;0.70;;
50056;SDS011;36875;49.468;11.200;2022-08-23T12:51:23;1.38;;;1.00;;
50056;SDS011;36875;49.468;11.200;2022-08-23T12:53:49;1.65;;;1.08;;
50056;SDS011;36875;49.468;11.200;2022-08-23T12:56:16;2.58;;;0.90;;
50056;SDS011;36875;49.468;11.200;2022-08-23T12:58:47;1.52;;;1.00;;
50056;SDS011;36875;49.468;11.200;2022-08-23T13:01:19;1.20;;;0.88;;
50056;SDS011;36875;49.468;11.200;2022-08-23T13:03:47;1.45;;;1.05;;
50056;SDS011;36875;49.468;11.200;2022-08-23T13:06:19;1.10;;;0.70;;
50056;SDS011;36875;49.468;11.200;2022-08-23T13:08:49;2.20;;;1.00;;
50056;SDS011;36875;49.468;11.200;2022-08-23T13:11:19;1.50;;;1.00;;
50056;SDS011;36875;49.468;11.200;2022-08-23T13:13:46;2.60;;;0.90;;
50056;SDS011;36875;49.468;11.200;2022-08-23T13:16:24;2.38;;;0.95;;
50056;SDS011;36875;49.468;11.200;2022-08-23T13:19:11;2.28;;;0.75;;
50056;SDS011;36875;49.468;11.200;2022-08-23T13:21:40;2.95;;;1.10;;
50056;SDS011;36875;49.468;11.200;2022-08-23T13:26:52;1.67;;;0.98;;
50056;SDS011;36875;49.468;11.200;2022-08-23T13:29:20;1.58;;;0.90;;
50056;SDS011;36875;49.468;11.200;2022-08-23T13:31:50;1.13;;;0.88;;
50056;SDS011;36875;49.468;11.200;2022-08-23T13:34:34;0.50;;;0.50;;
50056;SDS011;36875;49.468;11.200;2022-08-23T13:37:03;1.33;;;0.98;;
50056;SDS011;36875;49.468;11.200;2022-08-23T13:39:30;1.30;;;0.80;;
50056;SDS011;36875;49.468;11.200;2022-08-23T13:41:57;2.08;;;0.77;;
50056;SDS011;36875;49.468;11.200;2022-08-23T13:44:23;1.80;;;0.93;;
50056;SDS011;36875;49.468;11.200;2022-08-23T13:46:51;1.63;;;0.70;;
50056;SDS011;36875;49.468;11.200;2022-08-23T13:49:18;1.83;;;1.05;;
50056;SDS011;36875;49.468;11.200;2022-08-23T13:54:29;2.13;;;0.88;;
50056;SDS011;36875;49.468;11.200;2022-08-23T13:56:58;1.60;;;1.00;;
50056;SDS011;36875;49.468;11.200;2022-08-23T13:59:26;1.20;;;0.80;;
50056;SDS011;36875;49.468;11.200;2022-08-23T14:01:55;1.80;;;1.13;;
50056;SDS011;36875;49.468;11.200;2022-08-23T14:04:22;2.13;;;1.00;;
50056;SDS011;36875;49.468;11.200;2022-08-23T14:06:48;1.80;;;0.90;;
50056;SDS011;36875;49.468;11.200;2022-08-23T14:09:14;1.00;;;0.90;;
50056;SDS011;36875;49.468;11.200;2022-08-23T14:11:41;2.65;;;0.85;;
50056;SDS011;36875;49.468;11.200;2022-08-23T14:14:07;2.38;;;0.90;;
50056;SDS011;36875;49.468;11.200;2022-08-23T14:16:35;1.85;;;0.85;;
50056;SDS011;36875;49.468;11.200;2022-08-23T14:19:06;0.80;;;0.60;;
50056;SDS011;36875;49.468;11.200;2022-08-23T14:21:34;1.77;;;0.88;;
50056;SDS011;36875;49.468;11.200;2022-08-23T14:24:00;1.05;;;0.80;;
50056;SDS011;36875;49.468;11.200;2022-08-23T14:26:26;1.92;;;0.90;;
50056;SDS011;36875;49.468;11.200;2022-08-23T14:28:52;2.15;;;1.10;;
50056;SDS011;36875;49.468;11.200;2022-08-23T14:31:18;1.15;;;1.00;;
50056;SDS011;36875;49.468;11.200;2022-08-23T14:33:44;3.95;;;0.90;;
50056;SDS011;36875;49.468;11.200;2022-08-23T14:36:12;1.95;;;0.90;;
50056;SDS011;36875;49.468;11.200;2022-08-23T14:38:38;2.63;;;1.00;;
50056;SDS011;36875;49.468;11.200;2022-08-23T14:41:05;1.20;;;1.00;;
50056;SDS011;36875;49.468;11.200;2022-08-23T14:43:32;1.45;;;0.82;;
50056;SDS011;36875;49.468;11.200;2022-08-23T14:45:57;1.98;;;1.10;;
50056;SDS011;36875;49.468;11.200;2022-08-23T14:48:24;2.10;;;1.00;;
50056;SDS011;36875;49.468;11.200;2022-08-23T14:50:50;1.50;;;1.00;;
50056;SDS011;36875;49.468;11.200;2022-08-23T14:53:22;1.80;;;0.88;;
50056;SDS011;36875;49.468;11.200;2022-08-23T14:55:49;1.23;;;0.95;;
50056;SDS011;36875;49.468;11.200;2022-08-23T14:58:17;1.20;;;1.10;;
50056;SDS011;36875;49.468;11.200;2022-08-23T15:00:43;1.48;;;0.90;;
50056;SDS011;36875;49.468;11.200;2022-08-23T15:03:09;1.33;;;1.10;;
50056;SDS011;36875;49.468;11.200;2022-08-23T15:05:39;1.35;;;1.00;;
50056;SDS011;36875;49.468;11.200;2022-08-23T15:08:04;1.20;;;0.80;;
50056;SDS011;36875;49.468;11.200;2022-08-23T15:10:31;1.55;;;1.20;;
50056;SDS011;36875;49.468;11.200;2022-08-23T15:12:57;1.67;;;1.10;;
50056;SDS011;36875;49.468;11.200;2022-08-23T15:15:23;1.52;;;1.20;;
50056;SDS011;36875;49.468;11.200;2022-08-23T15:17:50;2.05;;;1.10;;